Pickton, Texas
Current Conditions -  °F | °C
As of 5:15 PM on Wednesday 26 Nov 2014 (Local Time) from KSLR Reporting Station
Clear Clear  
Wind Chill: 14°   Ceiling: Unl
Heat Index: 14°   Visibility: 10mi
Dew Point:   Wind: 8mph
Humidity: 48%   Direction: 350°N
Pressure: 30.24"   Gusts: NA
Location:  33.03°N, 95.39°W
Report Text: KSLR 262315Z AUTO 35007KT 10SM CLR 14/03 A3024 RMK AO2 T01370027
Loading
Personal Weather Stations






























Interactive Weather Map New forecast layout! Learn more

10-Day Weather Forecast

Advertisements
Track Severe Weather on mobile